sensor_id;sensor_type;location;lat;lon;timestamp;P1;durP1;ratioP1;P2;durP2;ratioP2
65896;SDS011;52677;50.898;10.854;2023-06-24T00:00:39;15.52;;;8.65;;
65896;SDS011;52677;50.898;10.854;2023-06-24T00:02:40;14.10;;;8.77;;
65896;SDS011;52677;50.898;10.854;2023-06-24T00:04:43;11.60;;;7.68;;
65896;SDS011;52677;50.898;10.854;2023-06-24T00:06:44;13.68;;;8.15;;
65896;SDS011;52677;50.898;10.854;2023-06-24T00:08:45;13.48;;;9.18;;
65896;SDS011;52677;50.898;10.854;2023-06-24T00:10:46;13.88;;;8.40;;
65896;SDS011;52677;50.898;10.854;2023-06-24T00:12:46;13.60;;;8.63;;
65896;SDS011;52677;50.898;10.854;2023-06-24T00:14:47;10.32;;;7.40;;
65896;SDS011;52677;50.898;10.854;2023-06-24T00:16:47;9.63;;;7.28;;
65896;SDS011;52677;50.898;10.854;2023-06-24T00:18:56;16.17;;;9.32;;
65896;SDS011;52677;50.898;10.854;2023-06-24T00:21:02;10.55;;;7.90;;
65896;SDS011;52677;50.898;10.854;2023-06-24T00:23:03;11.52;;;8.40;;
65896;SDS011;52677;50.898;10.854;2023-06-24T00:25:03;15.48;;;7.65;;
65896;SDS011;52677;50.898;10.854;2023-06-24T00:29:06;14.55;;;7.63;;
65896;SDS011;52677;50.898;10.854;2023-06-24T00:31:07;13.27;;;8.32;;
65896;SDS011;52677;50.898;10.854;2023-06-24T00:33:07;9.98;;;7.70;;
65896;SDS011;52677;50.898;10.854;2023-06-24T00:35:10;11.75;;;7.40;;
65896;SDS011;52677;50.898;10.854;2023-06-24T00:37:12;12.90;;;7.95;;
65896;SDS011;52677;50.898;10.854;2023-06-24T00:39:12;13.00;;;7.03;;
65896;SDS011;52677;50.898;10.854;2023-06-24T00:41:13;9.73;;;7.72;;
65896;SDS011;52677;50.898;10.854;2023-06-24T00:43:13;12.45;;;8.65;;
65896;SDS011;52677;50.898;10.854;2023-06-24T00:45:14;12.07;;;7.70;;
65896;SDS011;52677;50.898;10.854;2023-06-24T00:47:16;11.68;;;7.85;;
65896;SDS011;52677;50.898;10.854;2023-06-24T00:49:17;12.13;;;7.15;;
65896;SDS011;52677;50.898;10.854;2023-06-24T00:51:17;10.27;;;6.68;;
65896;SDS011;52677;50.898;10.854;2023-06-24T00:53:21;16.17;;;8.30;;
65896;SDS011;52677;50.898;10.854;2023-06-24T00:55:24;11.60;;;7.90;;
65896;SDS011;52677;50.898;10.854;2023-06-24T00:57:25;8.75;;;7.00;;
65896;SDS011;52677;50.898;10.854;2023-06-24T00:59:25;10.93;;;7.90;;
65896;SDS011;52677;50.898;10.854;2023-06-24T01:01:30;9.82;;;6.82;;
65896;SDS011;52677;50.898;10.854;2023-06-24T01:03:33;9.52;;;6.38;;
65896;SDS011;52677;50.898;10.854;2023-06-24T01:05:34;9.50;;;7.78;;
65896;SDS011;52677;50.898;10.854;2023-06-24T01:07:35;11.20;;;7.45;;
65896;SDS011;52677;50.898;10.854;2023-06-24T01:09:37;11.93;;;6.97;;
65896;SDS011;52677;50.898;10.854;2023-06-24T01:11:38;19.73;;;7.47;;
65896;SDS011;52677;50.898;10.854;2023-06-24T01:13:38;14.52;;;7.50;;
65896;SDS011;52677;50.898;10.854;2023-06-24T01:15:40;13.27;;;7.53;;
65896;SDS011;52677;50.898;10.854;2023-06-24T01:17:45;13.13;;;7.85;;
65896;SDS011;52677;50.898;10.854;2023-06-24T01:22:15;13.70;;;7.20;;
65896;SDS011;52677;50.898;10.854;2023-06-24T01:24:31;16.27;;;7.10;;
65896;SDS011;52677;50.898;10.854;2023-06-24T01:31:24;11.52;;;6.30;;
65896;SDS011;52677;50.898;10.854;2023-06-24T01:34:10;17.00;;;7.35;;
65896;SDS011;52677;50.898;10.854;2023-06-24T01:35:56;11.60;;;7.32;;
65896;SDS011;52677;50.898;10.854;2023-06-24T01:37:59;14.07;;;7.07;;
65896;SDS011;52677;50.898;10.854;2023-06-24T01:42:21;8.68;;;7.07;;
65896;SDS011;52677;50.898;10.854;2023-06-24T01:44:23;14.45;;;7.97;;
65896;SDS011;52677;50.898;10.854;2023-06-24T01:46:28;15.32;;;7.72;;
65896;SDS011;52677;50.898;10.854;2023-06-24T01:48:30;11.07;;;6.82;;
65896;SDS011;52677;50.898;10.854;2023-06-24T01:50:35;16.77;;;6.78;;
65896;SDS011;52677;50.898;10.854;2023-06-24T01:52:36;18.10;;;6.50;;
65896;SDS011;52677;50.898;10.854;2023-06-24T01:54:38;13.38;;;6.55;;
65896;SDS011;52677;50.898;10.854;2023-06-24T01:56:41;16.52;;;7.05;;
65896;SDS011;52677;50.898;10.854;2023-06-24T01:58:43;11.68;;;6.70;;
65896;SDS011;52677;50.898;10.854;2023-06-24T02:00:45;11.57;;;6.25;;
65896;SDS011;52677;50.898;10.854;2023-06-24T02:02:46;14.07;;;6.72;;
65896;SDS011;52677;50.898;10.854;2023-06-24T02:04:49;15.02;;;6.80;;
65896;SDS011;52677;50.898;10.854;2023-06-24T02:06:53;13.73;;;7.55;;
65896;SDS011;52677;50.898;10.854;2023-06-24T02:08:54;9.82;;;7.38;;
65896;SDS011;52677;50.898;10.854;2023-06-24T02:10:58;16.08;;;8.27;;
65896;SDS011;52677;50.898;10.854;2023-06-24T02:13:00;17.70;;;9.18;;
65896;SDS011;52677;50.898;10.854;2023-06-24T02:15:01;15.88;;;8.95;;
65896;SDS011;52677;50.898;10.854;2023-06-24T02:19:04;18.60;;;8.40;;
65896;SDS011;52677;50.898;10.854;2023-06-24T02:21:06;14.53;;;7.97;;
65896;SDS011;52677;50.898;10.854;2023-06-24T02:23:07;12.10;;;8.55;;
65896;SDS011;52677;50.898;10.854;2023-06-24T02:25:09;11.35;;;7.90;;
65896;SDS011;52677;50.898;10.854;2023-06-24T02:27:09;12.88;;;7.25;;
65896;SDS011;52677;50.898;10.854;2023-06-24T02:29:12;13.02;;;7.75;;
65896;SDS011;52677;50.898;10.854;2023-06-24T02:31:13;8.00;;;7.20;;
65896;SDS011;52677;50.898;10.854;2023-06-24T02:33:15;9.68;;;6.50;;
65896;SDS011;52677;50.898;10.854;2023-06-24T02:35:15;8.63;;;7.13;;
65896;SDS011;52677;50.898;10.854;2023-06-24T02:37:15;9.75;;;6.03;;
65896;SDS011;52677;50.898;10.854;2023-06-24T02:39:16;7.97;;;6.90;;
65896;SDS011;52677;50.898;10.854;2023-06-24T02:41:16;19.92;;;8.77;;
65896;SDS011;52677;50.898;10.854;2023-06-24T02:43:17;12.32;;;8.82;;
65896;SDS011;52677;50.898;10.854;2023-06-24T02:45:18;11.88;;;9.40;;
65896;SDS011;52677;50.898;10.854;2023-06-24T02:47:19;15.05;;;8.57;;
65896;SDS011;52677;50.898;10.854;2023-06-24T02:49:20;20.65;;;10.65;;
65896;SDS011;52677;50.898;10.854;2023-06-24T02:51:21;12.30;;;8.98;;
65896;SDS011;52677;50.898;10.854;2023-06-24T02:53:22;18.48;;;9.35;;
65896;SDS011;52677;50.898;10.854;2023-06-24T02:55:22;15.40;;;10.23;;
65896;SDS011;52677;50.898;10.854;2023-06-24T02:57:23;16.85;;;11.48;;
65896;SDS011;52677;50.898;10.854;2023-06-24T02:59:25;19.17;;;10.60;;
65896;SDS011;52677;50.898;10.854;2023-06-24T03:01:26;15.45;;;9.88;;
65896;SDS011;52677;50.898;10.854;2023-06-24T03:03:27;18.02;;;10.00;;
65896;SDS011;52677;50.898;10.854;2023-06-24T03:05:28;10.50;;;9.23;;
65896;SDS011;52677;50.898;10.854;2023-06-24T03:07:30;17.58;;;9.27;;
65896;SDS011;52677;50.898;10.854;2023-06-24T03:09:34;11.25;;;7.88;;
65896;SDS011;52677;50.898;10.854;2023-06-24T03:11:41;11.35;;;8.02;;
65896;SDS011;52677;50.898;10.854;2023-06-24T03:13:42;14.05;;;8.50;;
65896;SDS011;52677;50.898;10.854;2023-06-24T03:15:43;16.63;;;9.57;;
65896;SDS011;52677;50.898;10.854;2023-06-24T03:17:43;17.20;;;10.38;;
65896;SDS011;52677;50.898;10.854;2023-06-24T03:19:44;21.15;;;11.45;;
65896;SDS011;52677;50.898;10.854;2023-06-24T03:21:44;18.58;;;11.18;;
65896;SDS011;52677;50.898;10.854;2023-06-24T03:23:44;18.92;;;10.15;;
65896;SDS011;52677;50.898;10.854;2023-06-24T03:25:45;13.38;;;9.73;;
65896;SDS011;52677;50.898;10.854;2023-06-24T03:27:45;16.77;;;9.30;;
65896;SDS011;52677;50.898;10.854;2023-06-24T03:29:45;19.38;;;10.30;;
65896;SDS011;52677;50.898;10.854;2023-06-24T03:31:46;15.52;;;8.77;;
65896;SDS011;52677;50.898;10.854;2023-06-24T03:33:46;13.10;;;7.95;;
65896;SDS011;52677;50.898;10.854;2023-06-24T03:35:46;12.15;;;8.45;;
65896;SDS011;52677;50.898;10.854;2023-06-24T03:37:47;15.05;;;8.70;;
65896;SDS011;52677;50.898;10.854;2023-06-24T03:39:47;16.52;;;9.32;;
65896;SDS011;52677;50.898;10.854;2023-06-24T03:41:47;12.75;;;8.15;;
65896;SDS011;52677;50.898;10.854;2023-06-24T03:43:48;12.48;;;7.75;;
65896;SDS011;52677;50.898;10.854;2023-06-24T03:45:48;15.45;;;7.63;;
65896;SDS011;52677;50.898;10.854;2023-06-24T03:47:48;9.95;;;7.65;;
65896;SDS011;52677;50.898;10.854;2023-06-24T03:49:49;10.60;;;7.60;;
65896;SDS011;52677;50.898;10.854;2023-06-24T03:51:49;10.63;;;6.82;;
65896;SDS011;52677;50.898;10.854;2023-06-24T03:53:49;10.98;;;7.10;;
65896;SDS011;52677;50.898;10.854;2023-06-24T03:55:51;13.70;;;7.82;;
65896;SDS011;52677;50.898;10.854;2023-06-24T03:57:51;12.15;;;8.65;;
65896;SDS011;52677;50.898;10.854;2023-06-24T03:59:52;15.55;;;8.85;;
65896;SDS011;52677;50.898;10.854;2023-06-24T04:01:52;12.98;;;8.13;;
65896;SDS011;52677;50.898;10.854;2023-06-24T04:03:52;15.65;;;7.65;;
65896;SDS011;52677;50.898;10.854;2023-06-24T04:05:53;10.13;;;7.15;;
65896;SDS011;52677;50.898;10.854;2023-06-24T04:07:57;8.68;;;7.13;;
65896;SDS011;52677;50.898;10.854;2023-06-24T04:09:57;17.25;;;8.55;;
65896;SDS011;52677;50.898;10.854;2023-06-24T04:11:58;13.23;;;7.95;;
65896;SDS011;52677;50.898;10.854;2023-06-24T04:13:58;13.35;;;7.88;;
65896;SDS011;52677;50.898;10.854;2023-06-24T04:15:58;10.70;;;7.80;;
65896;SDS011;52677;50.898;10.854;2023-06-24T04:17:59;15.35;;;8.18;;
65896;SDS011;52677;50.898;10.854;2023-06-24T04:19:59;12.32;;;6.95;;
65896;SDS011;52677;50.898;10.854;2023-06-24T04:21:59;12.50;;;7.45;;
65896;SDS011;52677;50.898;10.854;2023-06-24T04:24:00;9.88;;;7.30;;
65896;SDS011;52677;50.898;10.854;2023-06-24T04:26:00;10.82;;;7.63;;
65896;SDS011;52677;50.898;10.854;2023-06-24T04:28:00;13.18;;;7.93;;
65896;SDS011;52677;50.898;10.854;2023-06-24T04:30:01;11.80;;;7.22;;
65896;SDS011;52677;50.898;10.854;2023-06-24T04:32:02;12.93;;;8.63;;
65896;SDS011;52677;50.898;10.854;2023-06-24T04:34:03;10.88;;;8.82;;
65896;SDS011;52677;50.898;10.854;2023-06-24T04:36:03;11.32;;;9.20;;
65896;SDS011;52677;50.898;10.854;2023-06-24T04:38:04;11.68;;;9.05;;
65896;SDS011;52677;50.898;10.854;2023-06-24T04:40:04;13.15;;;9.52;;
65896;SDS011;52677;50.898;10.854;2023-06-24T04:42:06;10.43;;;8.25;;
65896;SDS011;52677;50.898;10.854;2023-06-24T04:44:06;11.50;;;8.68;;
65896;SDS011;52677;50.898;10.854;2023-06-24T04:46:06;10.93;;;7.43;;
65896;SDS011;52677;50.898;10.854;2023-06-24T04:48:07;11.38;;;7.93;;
65896;SDS011;52677;50.898;10.854;2023-06-24T04:50:07;12.70;;;7.90;;
65896;SDS011;52677;50.898;10.854;2023-06-24T04:52:11;10.77;;;7.88;;
65896;SDS011;52677;50.898;10.854;2023-06-24T04:54:12;9.45;;;7.22;;
65896;SDS011;52677;50.898;10.854;2023-06-24T04:56:12;11.27;;;8.00;;
65896;SDS011;52677;50.898;10.854;2023-06-24T04:58:13;12.07;;;8.43;;
65896;SDS011;52677;50.898;10.854;2023-06-24T05:00:13;11.57;;;8.50;;
65896;SDS011;52677;50.898;10.854;2023-06-24T05:02:14;14.00;;;9.32;;
65896;SDS011;52677;50.898;10.854;2023-06-24T05:04:14;14.77;;;8.63;;
65896;SDS011;52677;50.898;10.854;2023-06-24T05:06:14;13.57;;;9.23;;
65896;SDS011;52677;50.898;10.854;2023-06-24T05:08:14;14.00;;;8.50;;
65896;SDS011;52677;50.898;10.854;2023-06-24T05:10:15;15.90;;;8.48;;
65896;SDS011;52677;50.898;10.854;2023-06-24T05:12:15;11.95;;;8.75;;
65896;SDS011;52677;50.898;10.854;2023-06-24T05:14:16;10.05;;;8.73;;
65896;SDS011;52677;50.898;10.854;2023-06-24T05:16:16;13.35;;;10.15;;
65896;SDS011;52677;50.898;10.854;2023-06-24T05:18:16;14.93;;;8.63;;
65896;SDS011;52677;50.898;10.854;2023-06-24T05:20:17;14.63;;;9.32;;
65896;SDS011;52677;50.898;10.854;2023-06-24T05:22:17;14.15;;;8.65;;
65896;SDS011;52677;50.898;10.854;2023-06-24T05:24:18;14.43;;;9.10;;
65896;SDS011;52677;50.898;10.854;2023-06-24T05:26:18;12.27;;;8.85;;
65896;SDS011;52677;50.898;10.854;2023-06-24T05:28:18;16.42;;;9.05;;
65896;SDS011;52677;50.898;10.854;2023-06-24T05:30:19;15.50;;;9.02;;
65896;SDS011;52677;50.898;10.854;2023-06-24T05:32:19;11.68;;;8.25;;
65896;SDS011;52677;50.898;10.854;2023-06-24T05:34:20;15.50;;;9.30;;
65896;SDS011;52677;50.898;10.854;2023-06-24T05:36:20;15.65;;;8.95;;
65896;SDS011;52677;50.898;10.854;2023-06-24T05:38:20;15.60;;;9.30;;
65896;SDS011;52677;50.898;10.854;2023-06-24T05:40:21;13.20;;;9.13;;
65896;SDS011;52677;50.898;10.854;2023-06-24T05:42:21;16.20;;;9.13;;
65896;SDS011;52677;50.898;10.854;2023-06-24T05:44:22;19.75;;;9.48;;
65896;SDS011;52677;50.898;10.854;2023-06-24T05:46:23;14.63;;;9.38;;
65896;SDS011;52677;50.898;10.854;2023-06-24T05:48:23;15.65;;;9.70;;
65896;SDS011;52677;50.898;10.854;2023-06-24T05:50:24;15.32;;;9.32;;
65896;SDS011;52677;50.898;10.854;2023-06-24T05:52:24;16.52;;;10.73;;
65896;SDS011;52677;50.898;10.854;2023-06-24T05:54:24;15.40;;;10.20;;
65896;SDS011;52677;50.898;10.854;2023-06-24T05:56:25;15.48;;;8.35;;
65896;SDS011;52677;50.898;10.854;2023-06-24T05:58:26;10.30;;;7.65;;
65896;SDS011;52677;50.898;10.854;2023-06-24T06:00:26;14.35;;;8.63;;
65896;SDS011;52677;50.898;10.854;2023-06-24T06:02:26;12.38;;;8.43;;
65896;SDS011;52677;50.898;10.854;2023-06-24T06:04:27;13.77;;;8.73;;
65896;SDS011;52677;50.898;10.854;2023-06-24T06:06:28;17.92;;;10.30;;
65896;SDS011;52677;50.898;10.854;2023-06-24T06:08:28;16.60;;;9.80;;
65896;SDS011;52677;50.898;10.854;2023-06-24T06:10:28;12.95;;;8.45;;
65896;SDS011;52677;50.898;10.854;2023-06-24T06:12:29;16.48;;;8.20;;
65896;SDS011;52677;50.898;10.854;2023-06-24T06:14:29;15.38;;;9.18;;
65896;SDS011;52677;50.898;10.854;2023-06-24T06:16:29;13.75;;;9.30;;
65896;SDS011;52677;50.898;10.854;2023-06-24T06:18:30;8.48;;;7.50;;
65896;SDS011;52677;50.898;10.854;2023-06-24T06:20:30;11.70;;;7.53;;
65896;SDS011;52677;50.898;10.854;2023-06-24T06:22:30;11.57;;;7.65;;
65896;SDS011;52677;50.898;10.854;2023-06-24T06:24:32;13.98;;;8.95;;
65896;SDS011;52677;50.898;10.854;2023-06-24T06:26:32;12.35;;;7.57;;
65896;SDS011;52677;50.898;10.854;2023-06-24T06:28:32;15.80;;;8.98;;
65896;SDS011;52677;50.898;10.854;2023-06-24T06:30:33;14.20;;;9.35;;
65896;SDS011;52677;50.898;10.854;2023-06-24T06:32:33;12.60;;;9.30;;
65896;SDS011;52677;50.898;10.854;2023-06-24T06:34:33;17.77;;;9.27;;
65896;SDS011;52677;50.898;10.854;2023-06-24T06:36:33;13.50;;;9.77;;
65896;SDS011;52677;50.898;10.854;2023-06-24T06:38:34;14.07;;;9.35;;
65896;SDS011;52677;50.898;10.854;2023-06-24T06:40:34;14.48;;;8.32;;
65896;SDS011;52677;50.898;10.854;2023-06-24T06:42:35;10.50;;;8.57;;
65896;SDS011;52677;50.898;10.854;2023-06-24T06:44:35;9.88;;;8.10;;
65896;SDS011;52677;50.898;10.854;2023-06-24T06:46:36;11.38;;;8.35;;
65896;SDS011;52677;50.898;10.854;2023-06-24T06:48:36;12.27;;;8.18;;
65896;SDS011;52677;50.898;10.854;2023-06-24T06:50:36;10.45;;;7.65;;
65896;SDS011;52677;50.898;10.854;2023-06-24T06:52:36;9.80;;;7.07;;
65896;SDS011;52677;50.898;10.854;2023-06-24T06:54:38;10.68;;;7.63;;
65896;SDS011;52677;50.898;10.854;2023-06-24T06:56:38;11.20;;;7.70;;
65896;SDS011;52677;50.898;10.854;2023-06-24T06:58:39;9.77;;;7.50;;
65896;SDS011;52677;50.898;10.854;2023-06-24T07:00:40;9.95;;;6.60;;
65896;SDS011;52677;50.898;10.854;2023-06-24T07:02:40;11.35;;;7.70;;
65896;SDS011;52677;50.898;10.854;2023-06-24T07:04:40;8.73;;;6.85;;
65896;SDS011;52677;50.898;10.854;2023-06-24T07:06:41;13.43;;;7.03;;
65896;SDS011;52677;50.898;10.854;2023-06-24T07:08:41;8.25;;;6.63;;
65896;SDS011;52677;50.898;10.854;2023-06-24T07:10:41;9.27;;;6.85;;
65896;SDS011;52677;50.898;10.854;2023-06-24T07:12:41;10.43;;;6.90;;
65896;SDS011;52677;50.898;10.854;2023-06-24T07:14:42;13.10;;;7.05;;
65896;SDS011;52677;50.898;10.854;2023-06-24T07:16:42;6.97;;;6.20;;
65896;SDS011;52677;50.898;10.854;2023-06-24T07:18:42;9.25;;;7.10;;
65896;SDS011;52677;50.898;10.854;2023-06-24T07:20:43;8.60;;;6.80;;
65896;SDS011;52677;50.898;10.854;2023-06-24T07:22:43;9.57;;;6.30;;
65896;SDS011;52677;50.898;10.854;2023-06-24T07:24:43;8.80;;;6.53;;
65896;SDS011;52677;50.898;10.854;2023-06-24T07:26:44;9.00;;;6.55;;
65896;SDS011;52677;50.898;10.854;2023-06-24T07:28:44;9.73;;;7.25;;
65896;SDS011;52677;50.898;10.854;2023-06-24T07:30:44;12.68;;;6.65;;
65896;SDS011;52677;50.898;10.854;2023-06-24T07:32:45;9.18;;;5.35;;
65896;SDS011;52677;50.898;10.854;2023-06-24T07:34:45;7.72;;;5.93;;
65896;SDS011;52677;50.898;10.854;2023-06-24T07:36:45;8.48;;;6.03;;
65896;SDS011;52677;50.898;10.854;2023-06-24T07:38:46;9.15;;;6.35;;
65896;SDS011;52677;50.898;10.854;2023-06-24T07:40:46;7.03;;;6.20;;
65896;SDS011;52677;50.898;10.854;2023-06-24T07:42:46;7.30;;;6.25;;
65896;SDS011;52677;50.898;10.854;2023-06-24T07:44:47;9.65;;;6.53;;
65896;SDS011;52677;50.898;10.854;2023-06-24T07:46:48;7.55;;;6.10;;
65896;SDS011;52677;50.898;10.854;2023-06-24T07:50:51;7.23;;;5.83;;
65896;SDS011;52677;50.898;10.854;2023-06-24T07:52:51;7.07;;;6.10;;
65896;SDS011;52677;50.898;10.854;2023-06-24T07:54:51;7.13;;;5.75;;
65896;SDS011;52677;50.898;10.854;2023-06-24T07:56:52;8.23;;;5.50;;
65896;SDS011;52677;50.898;10.854;2023-06-24T07:58:53;6.60;;;5.68;;
65896;SDS011;52677;50.898;10.854;2023-06-24T08:00:53;7.72;;;5.22;;
65896;SDS011;52677;50.898;10.854;2023-06-24T08:02:53;8.95;;;6.15;;
65896;SDS011;52677;50.898;10.854;2023-06-24T08:04:55;8.20;;;6.00;;
65896;SDS011;52677;50.898;10.854;2023-06-24T08:06:55;9.93;;;6.15;;
65896;SDS011;52677;50.898;10.854;2023-06-24T08:08:56;9.45;;;6.60;;
65896;SDS011;52677;50.898;10.854;2023-06-24T08:10:56;10.02;;;6.88;;
65896;SDS011;52677;50.898;10.854;2023-06-24T08:12:56;8.82;;;6.43;;
65896;SDS011;52677;50.898;10.854;2023-06-24T08:14:57;7.15;;;6.07;;
65896;SDS011;52677;50.898;10.854;2023-06-24T08:16:57;7.72;;;6.15;;
65896;SDS011;52677;50.898;10.854;2023-06-24T08:18:57;7.10;;;6.38;;
65896;SDS011;52677;50.898;10.854;2023-06-24T08:20:58;9.52;;;6.78;;
65896;SDS011;52677;50.898;10.854;2023-06-24T08:22:58;8.48;;;6.00;;
65896;SDS011;52677;50.898;10.854;2023-06-24T08:24:58;10.55;;;6.25;;
65896;SDS011;52677;50.898;10.854;2023-06-24T08:26:59;11.18;;;6.18;;
65896;SDS011;52677;50.898;10.854;2023-06-24T08:28:59;7.93;;;6.35;;
65896;SDS011;52677;50.898;10.854;2023-06-24T08:30:59;7.43;;;6.13;;
65896;SDS011;52677;50.898;10.854;2023-06-24T08:33:00;8.80;;;5.70;;
65896;SDS011;52677;50.898;10.854;2023-06-24T08:35:00;10.30;;;6.55;;
65896;SDS011;52677;50.898;10.854;2023-06-24T08:37:00;7.85;;;6.32;;
65896;SDS011;52677;50.898;10.854;2023-06-24T08:39:01;10.07;;;7.15;;
65896;SDS011;52677;50.898;10.854;2023-06-24T08:41:01;12.43;;;7.85;;
65896;SDS011;52677;50.898;10.854;2023-06-24T08:43:02;7.85;;;6.15;;
65896;SDS011;52677;50.898;10.854;2023-06-24T08:45:02;8.85;;;6.35;;
65896;SDS011;52677;50.898;10.854;2023-06-24T08:47:03;6.72;;;5.57;;
65896;SDS011;52677;50.898;10.854;2023-06-24T08:51:20;7.63;;;5.10;;
65896;SDS011;52677;50.898;10.854;2023-06-24T08:53:27;7.07;;;5.68;;
65896;SDS011;52677;50.898;10.854;2023-06-24T08:55:28;6.38;;;5.30;;
65896;SDS011;52677;50.898;10.854;2023-06-24T08:57:31;11.10;;;5.57;;
65896;SDS011;52677;50.898;10.854;2023-06-24T08:59:33;7.03;;;5.28;;
65896;SDS011;52677;50.898;10.854;2023-06-24T09:01:34;7.30;;;4.70;;
65896;SDS011;52677;50.898;10.854;2023-06-24T09:03:35;6.43;;;5.65;;
65896;SDS011;52677;50.898;10.854;2023-06-24T09:05:35;8.25;;;5.65;;
65896;SDS011;52677;50.898;10.854;2023-06-24T09:07:36;8.52;;;5.18;;
65896;SDS011;52677;50.898;10.854;2023-06-24T09:09:43;11.95;;;5.55;;
65896;SDS011;52677;50.898;10.854;2023-06-24T09:11:50;8.43;;;5.53;;
65896;SDS011;52677;50.898;10.854;2023-06-24T09:13:58;6.72;;;5.25;;
65896;SDS011;52677;50.898;10.854;2023-06-24T09:15:59;7.85;;;6.05;;
65896;SDS011;52677;50.898;10.854;2023-06-24T09:17:59;9.07;;;5.90;;
65896;SDS011;52677;50.898;10.854;2023-06-24T09:20:04;12.18;;;5.95;;
65896;SDS011;52677;50.898;10.854;2023-06-24T09:22:07;9.48;;;5.97;;
65896;SDS011;52677;50.898;10.854;2023-06-24T09:24:16;6.38;;;5.00;;
65896;SDS011;52677;50.898;10.854;2023-06-24T09:26:16;6.47;;;5.40;;
65896;SDS011;52677;50.898;10.854;2023-06-24T09:28:16;8.80;;;5.47;;
65896;SDS011;52677;50.898;10.854;2023-06-24T09:30:20;20.00;;;5.72;;
65896;SDS011;52677;50.898;10.854;2023-06-24T09:32:26;6.07;;;4.93;;
65896;SDS011;52677;50.898;10.854;2023-06-24T09:34:29;6.80;;;4.90;;
65896;SDS011;52677;50.898;10.854;2023-06-24T09:36:29;6.95;;;5.10;;
65896;SDS011;52677;50.898;10.854;2023-06-24T09:38:36;5.88;;;4.80;;
65896;SDS011;52677;50.898;10.854;2023-06-24T09:40:38;10.57;;;7.18;;
65896;SDS011;52677;50.898;10.854;2023-06-24T09:42:46;5.93;;;4.75;;
65896;SDS011;52677;50.898;10.854;2023-06-24T09:44:54;5.45;;;4.68;;
65896;SDS011;52677;50.898;10.854;2023-06-24T09:46:55;6.68;;;5.43;;
65896;SDS011;52677;50.898;10.854;2023-06-24T09:48:56;6.97;;;4.38;;
65896;SDS011;52677;50.898;10.854;2023-06-24T09:50:59;5.10;;;4.57;;
65896;SDS011;52677;50.898;10.854;2023-06-24T09:53:03;4.35;;;3.88;;
65896;SDS011;52677;50.898;10.854;2023-06-24T09:55:04;4.15;;;3.75;;
65896;SDS011;52677;50.898;10.854;2023-06-24T09:57:07;6.22;;;4.32;;
65896;SDS011;52677;50.898;10.854;2023-06-24T10:01:10;5.00;;;4.38;;
65896;SDS011;52677;50.898;10.854;2023-06-24T10:03:11;5.05;;;4.28;;
65896;SDS011;52677;50.898;10.854;2023-06-24T10:05:15;5.85;;;4.28;;
65896;SDS011;52677;50.898;10.854;2023-06-24T10:07:15;5.75;;;4.72;;
65896;SDS011;52677;50.898;10.854;2023-06-24T10:09:17;6.18;;;5.05;;
65896;SDS011;52677;50.898;10.854;2023-06-24T10:11:19;6.78;;;4.45;;
65896;SDS011;52677;50.898;10.854;2023-06-24T10:13:19;6.60;;;4.30;;
65896;SDS011;52677;50.898;10.854;2023-06-24T10:15:20;6.63;;;4.20;;
65896;SDS011;52677;50.898;10.854;2023-06-24T10:17:20;7.10;;;4.60;;
65896;SDS011;52677;50.898;10.854;2023-06-24T10:19:20;7.00;;;5.13;;
65896;SDS011;52677;50.898;10.854;2023-06-24T10:21:22;7.88;;;4.35;;
65896;SDS011;52677;50.898;10.854;2023-06-24T10:23:22;8.25;;;4.97;;
65896;SDS011;52677;50.898;10.854;2023-06-24T10:25:22;5.10;;;4.28;;
65896;SDS011;52677;50.898;10.854;2023-06-24T10:27:23;6.05;;;4.90;;
65896;SDS011;52677;50.898;10.854;2023-06-24T10:29:36;5.95;;;4.47;;
65896;SDS011;52677;50.898;10.854;2023-06-24T10:33:40;5.28;;;4.22;;
65896;SDS011;52677;50.898;10.854;2023-06-24T10:35:41;4.45;;;3.95;;
65896;SDS011;52677;50.898;10.854;2023-06-24T10:37:49;4.30;;;3.65;;
65896;SDS011;52677;50.898;10.854;2023-06-24T10:42:03;5.72;;;4.10;;
65896;SDS011;52677;50.898;10.854;2023-06-24T10:44:44;5.23;;;4.33;;
65896;SDS011;52677;50.898;10.854;2023-06-24T10:46:54;6.32;;;4.85;;
65896;SDS011;52677;50.898;10.854;2023-06-24T10:48:54;7.20;;;4.40;;
65896;SDS011;52677;50.898;10.854;2023-06-24T10:50:55;5.45;;;3.88;;
65896;SDS011;52677;50.898;10.854;2023-06-24T10:52:55;5.30;;;4.15;;
65896;SDS011;52677;50.898;10.854;2023-06-24T10:54:56;5.97;;;4.32;;
65896;SDS011;52677;50.898;10.854;2023-06-24T10:56:58;5.90;;;4.55;;
65896;SDS011;52677;50.898;10.854;2023-06-24T10:58:58;6.38;;;4.47;;
65896;SDS011;52677;50.898;10.854;2023-06-24T11:01:08;6.03;;;4.72;;
65896;SDS011;52677;50.898;10.854;2023-06-24T11:03:15;4.93;;;4.22;;
65896;SDS011;52677;50.898;10.854;2023-06-24T11:05:16;5.75;;;4.47;;
65896;SDS011;52677;50.898;10.854;2023-06-24T11:07:17;6.28;;;3.95;;
65896;SDS011;52677;50.898;10.854;2023-06-24T11:11:19;5.33;;;3.73;;
65896;SDS011;52677;50.898;10.854;2023-06-24T11:13:21;5.38;;;4.35;;
65896;SDS011;52677;50.898;10.854;2023-06-24T11:15:21;4.82;;;4.28;;
65896;SDS011;52677;50.898;10.854;2023-06-24T11:17:22;6.75;;;4.43;;
65896;SDS011;52677;50.898;10.854;2023-06-24T11:19:22;5.18;;;4.45;;
65896;SDS011;52677;50.898;10.854;2023-06-24T11:21:27;5.00;;;4.22;;
65896;SDS011;52677;50.898;10.854;2023-06-24T11:23:30;5.03;;;4.53;;
65896;SDS011;52677;50.898;10.854;2023-06-24T11:25:37;5.82;;;4.45;;
65896;SDS011;52677;50.898;10.854;2023-06-24T11:27:42;5.80;;;3.80;;
65896;SDS011;52677;50.898;10.854;2023-06-24T11:29:42;4.85;;;4.03;;
65896;SDS011;52677;50.898;10.854;2023-06-24T11:31:44;4.47;;;3.92;;
65896;SDS011;52677;50.898;10.854;2023-06-24T11:33:48;4.95;;;4.22;;
65896;SDS011;52677;50.898;10.854;2023-06-24T11:35:49;7.20;;;4.28;;
65896;SDS011;52677;50.898;10.854;2023-06-24T11:37:49;7.40;;;4.07;;
65896;SDS011;52677;50.898;10.854;2023-06-24T11:40:00;4.78;;;4.28;;
65896;SDS011;52677;50.898;10.854;2023-06-24T11:42:05;4.47;;;3.70;;
65896;SDS011;52677;50.898;10.854;2023-06-24T11:44:10;5.47;;;3.40;;
65896;SDS011;52677;50.898;10.854;2023-06-24T11:46:10;4.47;;;3.92;;
65896;SDS011;52677;50.898;10.854;2023-06-24T11:48:20;4.88;;;3.45;;
65896;SDS011;52677;50.898;10.854;2023-06-24T11:50:25;3.97;;;3.58;;
65896;SDS011;52677;50.898;10.854;2023-06-24T11:52:31;5.18;;;3.78;;
65896;SDS011;52677;50.898;10.854;2023-06-24T11:54:40;5.45;;;3.63;;
65896;SDS011;52677;50.898;10.854;2023-06-24T11:56:42;4.38;;;3.72;;
65896;SDS011;52677;50.898;10.854;2023-06-24T11:58:44;3.97;;;3.45;;
65896;SDS011;52677;50.898;10.854;2023-06-24T12:00:45;4.03;;;3.20;;
65896;SDS011;52677;50.898;10.854;2023-06-24T12:02:49;4.38;;;3.30;;
65896;SDS011;52677;50.898;10.854;2023-06-24T12:04:50;5.00;;;3.60;;
65896;SDS011;52677;50.898;10.854;2023-06-24T12:06:50;4.25;;;3.85;;
65896;SDS011;52677;50.898;10.854;2023-06-24T12:08:51;5.18;;;3.50;;
65896;SDS011;52677;50.898;10.854;2023-06-24T12:10:51;6.82;;;3.95;;
65896;SDS011;52677;50.898;10.854;2023-06-24T12:12:52;5.15;;;3.65;;
65896;SDS011;52677;50.898;10.854;2023-06-24T12:14:52;4.50;;;3.63;;
65896;SDS011;52677;50.898;10.854;2023-06-24T12:16:54;4.70;;;3.87;;
65896;SDS011;52677;50.898;10.854;2023-06-24T12:18:54;5.32;;;3.70;;
65896;SDS011;52677;50.898;10.854;2023-06-24T12:20:55;5.35;;;3.63;;